KPSM/PSM METAR and TAF weather

Enter ICAO airport designator
Station Type Date Time Source
KPSM METAR 2019/08/25 16:57 UTC NOAA

KPSM 251657Z 06011G17KT 10SM FEW035 20/10 A3035 RMK SLP280 T01950102


Station Type Date Time Source
KPSM Decoded METAR 2019/08/25 16:57 UTC NOAA

Station name not available
Aug 25, 2019 - 12:57 PM EDT / 2019.08.25 1657 UTC
Wind: from the ENE (060 degrees) at 13 MPH (11 KT) gusting to 20 MPH (17 KT):0
Visibility: 10 mile(s):0
Sky conditions: mostly clear
Temperature: 67.1 F (19.5 C)
Dew Point: 50.4 F (10.2 C)
Relative Humidity: 54%
Pressure (altimeter): 30.35 in. Hg (1027 hPa)
ob: KPSM 251657Z 06011G17KT 10SM FEW035 20/10 A3035 RMK SLP280 T01950102
cycle: 17

Station Type Date Time Source
KPSM TAF 2019/08/25 18:24 UTC NOAA

TAF KPSM 251721Z 2518/2618 06012G19KT P6SM FEW035
FM252300 06006KT P6SM SKC

Example: see airport list